الصفحة الرئيسية
METAR-TAF:

METAR-TAF

مطار :

مطار نورمان مانلي الدولي

كينغستون, جامايكا

دائرة عرض: 17-56N, خط طول: 076-47W, ارتفاع: 3 متر

مراقبة الطقس الحالي

تاريخ ووقت الإصدار 31 دقيقة قبل الساعة 04:00UTC
ريح 18 عقدة من الشرق/الجنوب الشرقي
درجة الحرارة 27°درجة مئوية
الرطوبة 58%
ضغط 1016 hPa
الرؤية 10 كم أو أكثر
غيوم قليلة على ارتفاع 2400 قدم

METAR: MKJP 240400Z 11018KT 9999 FEW024 27/18 Q1016

زمن: 23:31 (04:31 UTC)

توقعات

تاريخ ووقت الإصدار 5ساعات و 16 دقيقة قبل الساعة 23:15UTC
التوقعات صالحة من24 الساعة 00 UTC إلى 24 الساعة 24 UTC
ريح 22 عقدة من الشرق/الجنوب الشرقي
الرؤية 10 كم أو أكثر
غيوم قليلة على ارتفاع 2400 قدم
أصبح
من 24 الساعة 02 UTC إلى 24 الساعة 04 UTC
ريح 12 عقدة من الشرق/الجنوب الشرقي
نظرية الاحتمالات 30% :
مؤقت
من 24 الساعة 08 UTC إلى 24 الساعة 12 UTC
ريح 8 عقدة من الشمال
أصبح
من 24 الساعة 14 UTC إلى 24 الساعة 16 UTC
ريح 22 عقدة من الجنوب الشرقي تتزايد حتى 32 عقدة

TAF: MKJP 232315Z 2400/2424 12022KT 9999 FEW024 BECMG 2402/2404 12012KT PROB30 TEMPO 2408/2412 35008KT BECMG 2414/2416 13022G32KT

أرصاد الطقس والتوقعات من أكثر من 4000 مطار (تقارير الطقس للمطار METAR والتنبؤ بالطقس بالمطارTAF).

المحطات المتاحة هي النقط الصفراء والحمراء على الخريطة.

حرك المؤشر فوق النقطة لمعرفة اسم المحطة.

ثم انقر لمعرفة أرصاد وتوقعات الطقس.

لتغيير الخارطة: اضغط على الأزرار الخضراء مع رمز الصليب الأسود للتكبير. على الزر الأخضر مع شرطة للتصغير، أو على الأسهم الخضراء للخرائط المجاورة.


METAR-TAF: